sensor_id;sensor_type;location;lat;lon;timestamp;P1;durP1;ratioP1;P2;durP2;ratioP2
17207;SDS011;8720;48.488;9.202;2023-11-21T00:01:39;2.93;;;1.80;;
17207;SDS011;8720;48.488;9.202;2023-11-21T00:04:11;4.03;;;1.80;;
17207;SDS011;8720;48.488;9.202;2023-11-21T00:06:40;3.00;;;1.70;;
17207;SDS011;8720;48.488;9.202;2023-11-21T00:09:08;3.43;;;1.47;;
17207;SDS011;8720;48.488;9.202;2023-11-21T00:11:38;3.10;;;1.60;;
17207;SDS011;8720;48.488;9.202;2023-11-21T00:14:09;2.43;;;1.70;;
17207;SDS011;8720;48.488;9.202;2023-11-21T00:16:37;3.77;;;2.03;;
17207;SDS011;8720;48.488;9.202;2023-11-21T00:19:05;2.37;;;1.20;;
17207;SDS011;8720;48.488;9.202;2023-11-21T00:21:33;3.93;;;1.33;;
17207;SDS011;8720;48.488;9.202;2023-11-21T00:24:01;2.60;;;1.30;;
17207;SDS011;8720;48.488;9.202;2023-11-21T00:26:28;2.50;;;1.10;;
17207;SDS011;8720;48.488;9.202;2023-11-21T00:29:02;3.23;;;1.17;;
17207;SDS011;8720;48.488;9.202;2023-11-21T00:31:33;1.93;;;0.90;;
17207;SDS011;8720;48.488;9.202;2023-11-21T00:34:02;1.97;;;1.03;;
17207;SDS011;8720;48.488;9.202;2023-11-21T00:36:30;1.90;;;1.00;;
17207;SDS011;8720;48.488;9.202;2023-11-21T00:38:59;1.47;;;1.27;;
17207;SDS011;8720;48.488;9.202;2023-11-21T00:41:29;2.97;;;1.40;;
17207;SDS011;8720;48.488;9.202;2023-11-21T00:43:57;2.07;;;0.90;;
17207;SDS011;8720;48.488;9.202;2023-11-21T00:46:25;1.93;;;0.77;;
17207;SDS011;8720;48.488;9.202;2023-11-21T00:48:57;2.03;;;1.00;;
17207;SDS011;8720;48.488;9.202;2023-11-21T00:51:24;1.60;;;0.80;;
17207;SDS011;8720;48.488;9.202;2023-11-21T00:53:51;2.17;;;0.90;;
17207;SDS011;8720;48.488;9.202;2023-11-21T00:56:20;1.53;;;0.80;;
17207;SDS011;8720;48.488;9.202;2023-11-21T00:58:49;1.30;;;0.80;;
17207;SDS011;8720;48.488;9.202;2023-11-21T01:01:17;1.10;;;0.90;;
17207;SDS011;8720;48.488;9.202;2023-11-21T01:03:45;1.63;;;0.83;;
17207;SDS011;8720;48.488;9.202;2023-11-21T01:06:13;2.57;;;1.23;;
17207;SDS011;8720;48.488;9.202;2023-11-21T01:08:41;1.93;;;0.90;;
17207;SDS011;8720;48.488;9.202;2023-11-21T01:11:09;2.07;;;0.80;;
17207;SDS011;8720;48.488;9.202;2023-11-21T01:13:38;1.50;;;0.80;;
17207;SDS011;8720;48.488;9.202;2023-11-21T01:16:07;1.33;;;0.80;;
17207;SDS011;8720;48.488;9.202;2023-11-21T01:18:34;3.47;;;1.10;;
17207;SDS011;8720;48.488;9.202;2023-11-21T01:21:03;4.10;;;0.83;;
17207;SDS011;8720;48.488;9.202;2023-11-21T01:23:31;1.23;;;0.80;;
17207;SDS011;8720;48.488;9.202;2023-11-21T01:25:58;1.43;;;0.83;;
17207;SDS011;8720;48.488;9.202;2023-11-21T01:28:26;1.87;;;1.13;;
17207;SDS011;8720;48.488;9.202;2023-11-21T01:30:55;1.40;;;0.80;;
17207;SDS011;8720;48.488;9.202;2023-11-21T01:33:23;1.33;;;0.77;;
17207;SDS011;8720;48.488;9.202;2023-11-21T01:35:51;2.23;;;1.10;;
17207;SDS011;8720;48.488;9.202;2023-11-21T01:38:19;2.47;;;1.07;;
17207;SDS011;8720;48.488;9.202;2023-11-21T01:40:47;1.23;;;0.90;;
17207;SDS011;8720;48.488;9.202;2023-11-21T01:43:15;2.23;;;0.80;;
17207;SDS011;8720;48.488;9.202;2023-11-21T01:45:43;1.47;;;0.80;;
17207;SDS011;8720;48.488;9.202;2023-11-21T01:48:12;1.20;;;0.70;;
17207;SDS011;8720;48.488;9.202;2023-11-21T01:50:41;1.50;;;0.80;;
17207;SDS011;8720;48.488;9.202;2023-11-21T01:53:11;1.03;;;0.70;;
17207;SDS011;8720;48.488;9.202;2023-11-21T01:55:40;1.33;;;0.80;;
17207;SDS011;8720;48.488;9.202;2023-11-21T01:58:09;2.10;;;0.83;;
17207;SDS011;8720;48.488;9.202;2023-11-21T02:00:39;1.50;;;0.70;;
17207;SDS011;8720;48.488;9.202;2023-11-21T02:03:07;1.47;;;0.77;;
17207;SDS011;8720;48.488;9.202;2023-11-21T02:05:36;1.17;;;0.80;;
17207;SDS011;8720;48.488;9.202;2023-11-21T02:08:04;1.00;;;0.60;;
17207;SDS011;8720;48.488;9.202;2023-11-21T02:10:31;1.93;;;0.70;;
17207;SDS011;8720;48.488;9.202;2023-11-21T02:12:59;1.40;;;0.70;;
17207;SDS011;8720;48.488;9.202;2023-11-21T02:15:28;1.23;;;0.77;;
17207;SDS011;8720;48.488;9.202;2023-11-21T02:17:56;1.63;;;0.70;;
17207;SDS011;8720;48.488;9.202;2023-11-21T02:20:24;1.33;;;0.90;;
17207;SDS011;8720;48.488;9.202;2023-11-21T02:22:53;1.30;;;0.80;;
17207;SDS011;8720;48.488;9.202;2023-11-21T02:25:24;1.20;;;0.70;;
17207;SDS011;8720;48.488;9.202;2023-11-21T02:27:53;1.40;;;0.60;;
17207;SDS011;8720;48.488;9.202;2023-11-21T02:30:20;1.20;;;0.70;;
17207;SDS011;8720;48.488;9.202;2023-11-21T02:32:51;1.00;;;0.60;;
17207;SDS011;8720;48.488;9.202;2023-11-21T02:35:19;1.20;;;0.80;;
17207;SDS011;8720;48.488;9.202;2023-11-21T02:37:47;1.73;;;0.90;;
17207;SDS011;8720;48.488;9.202;2023-11-21T02:40:16;1.03;;;0.60;;
17207;SDS011;8720;48.488;9.202;2023-11-21T02:42:45;1.13;;;0.70;;
17207;SDS011;8720;48.488;9.202;2023-11-21T02:45:13;1.93;;;0.77;;
17207;SDS011;8720;48.488;9.202;2023-11-21T02:47:42;1.17;;;0.60;;
17207;SDS011;8720;48.488;9.202;2023-11-21T02:50:09;0.93;;;0.57;;
17207;SDS011;8720;48.488;9.202;2023-11-21T02:52:37;1.50;;;0.60;;
17207;SDS011;8720;48.488;9.202;2023-11-21T02:55:06;0.90;;;0.60;;
17207;SDS011;8720;48.488;9.202;2023-11-21T02:57:35;1.00;;;0.60;;
17207;SDS011;8720;48.488;9.202;2023-11-21T03:00:03;2.33;;;0.60;;
17207;SDS011;8720;48.488;9.202;2023-11-21T03:05:07;1.53;;;0.70;;
17207;SDS011;8720;48.488;9.202;2023-11-21T03:07:36;1.10;;;0.63;;
17207;SDS011;8720;48.488;9.202;2023-11-21T03:10:04;1.40;;;0.67;;
17207;SDS011;8720;48.488;9.202;2023-11-21T03:12:35;0.90;;;0.50;;
17207;SDS011;8720;48.488;9.202;2023-11-21T03:15:03;1.50;;;0.60;;
17207;SDS011;8720;48.488;9.202;2023-11-21T03:17:31;1.10;;;0.60;;
17207;SDS011;8720;48.488;9.202;2023-11-21T03:19:59;1.10;;;0.60;;
17207;SDS011;8720;48.488;9.202;2023-11-21T03:22:27;1.83;;;0.60;;
17207;SDS011;8720;48.488;9.202;2023-11-21T03:24:54;1.00;;;0.70;;
17207;SDS011;8720;48.488;9.202;2023-11-21T03:27:22;1.23;;;0.70;;
17207;SDS011;8720;48.488;9.202;2023-11-21T03:29:51;2.13;;;0.80;;
17207;SDS011;8720;48.488;9.202;2023-11-21T03:32:19;1.43;;;0.77;;
17207;SDS011;8720;48.488;9.202;2023-11-21T03:34:53;1.37;;;0.63;;
17207;SDS011;8720;48.488;9.202;2023-11-21T03:37:23;1.10;;;0.70;;
17207;SDS011;8720;48.488;9.202;2023-11-21T03:39:54;1.63;;;0.63;;
17207;SDS011;8720;48.488;9.202;2023-11-21T03:42:21;1.00;;;0.70;;
17207;SDS011;8720;48.488;9.202;2023-11-21T03:44:51;0.90;;;0.50;;
17207;SDS011;8720;48.488;9.202;2023-11-21T03:47:19;1.10;;;0.60;;
17207;SDS011;8720;48.488;9.202;2023-11-21T03:49:47;2.60;;;0.63;;
17207;SDS011;8720;48.488;9.202;2023-11-21T03:52:15;1.43;;;0.60;;
17207;SDS011;8720;48.488;9.202;2023-11-21T03:54:42;1.67;;;0.70;;
17207;SDS011;8720;48.488;9.202;2023-11-21T03:57:10;1.33;;;0.60;;
17207;SDS011;8720;48.488;9.202;2023-11-21T03:59:39;2.83;;;0.77;;
17207;SDS011;8720;48.488;9.202;2023-11-21T04:02:09;0.90;;;0.60;;
17207;SDS011;8720;48.488;9.202;2023-11-21T04:04:36;1.20;;;0.70;;
17207;SDS011;8720;48.488;9.202;2023-11-21T04:07:04;0.90;;;0.60;;
17207;SDS011;8720;48.488;9.202;2023-11-21T04:09:31;1.47;;;0.50;;
17207;SDS011;8720;48.488;9.202;2023-11-21T04:11:59;1.00;;;0.60;;
17207;SDS011;8720;48.488;9.202;2023-11-21T04:14:26;0.97;;;0.60;;
17207;SDS011;8720;48.488;9.202;2023-11-21T04:16:54;0.90;;;0.50;;
17207;SDS011;8720;48.488;9.202;2023-11-21T04:19:23;1.50;;;0.50;;
17207;SDS011;8720;48.488;9.202;2023-11-21T04:21:50;0.90;;;0.57;;
17207;SDS011;8720;48.488;9.202;2023-11-21T04:24:17;1.10;;;0.60;;
17207;SDS011;8720;48.488;9.202;2023-11-21T04:26:45;2.40;;;0.60;;
17207;SDS011;8720;48.488;9.202;2023-11-21T04:29:12;1.30;;;0.60;;
17207;SDS011;8720;48.488;9.202;2023-11-21T04:31:39;0.90;;;0.50;;
17207;SDS011;8720;48.488;9.202;2023-11-21T04:34:07;1.10;;;0.70;;
17207;SDS011;8720;48.488;9.202;2023-11-21T04:36:35;0.90;;;0.60;;
17207;SDS011;8720;48.488;9.202;2023-11-21T04:39:03;1.30;;;0.80;;
17207;SDS011;8720;48.488;9.202;2023-11-21T04:41:31;1.67;;;0.70;;
17207;SDS011;8720;48.488;9.202;2023-11-21T04:43:59;1.20;;;0.60;;
17207;SDS011;8720;48.488;9.202;2023-11-21T04:46:26;1.10;;;0.67;;
17207;SDS011;8720;48.488;9.202;2023-11-21T04:48:54;0.97;;;0.60;;
17207;SDS011;8720;48.488;9.202;2023-11-21T04:51:21;0.90;;;0.50;;
17207;SDS011;8720;48.488;9.202;2023-11-21T04:53:50;1.20;;;0.60;;
17207;SDS011;8720;48.488;9.202;2023-11-21T04:56:17;0.90;;;0.57;;
17207;SDS011;8720;48.488;9.202;2023-11-21T04:58:45;1.00;;;0.60;;
17207;SDS011;8720;48.488;9.202;2023-11-21T05:01:12;1.00;;;0.60;;
17207;SDS011;8720;48.488;9.202;2023-11-21T05:03:39;1.00;;;0.60;;
17207;SDS011;8720;48.488;9.202;2023-11-21T05:06:09;0.90;;;0.60;;
17207;SDS011;8720;48.488;9.202;2023-11-21T05:08:36;1.07;;;0.60;;
17207;SDS011;8720;48.488;9.202;2023-11-21T05:11:05;1.00;;;0.60;;
17207;SDS011;8720;48.488;9.202;2023-11-21T05:13:35;1.20;;;0.60;;
17207;SDS011;8720;48.488;9.202;2023-11-21T05:16:04;1.20;;;0.60;;
17207;SDS011;8720;48.488;9.202;2023-11-21T05:18:32;1.23;;;0.70;;
17207;SDS011;8720;48.488;9.202;2023-11-21T05:20:59;1.00;;;0.60;;
17207;SDS011;8720;48.488;9.202;2023-11-21T05:23:27;1.00;;;0.60;;
17207;SDS011;8720;48.488;9.202;2023-11-21T05:25:54;0.90;;;0.57;;
17207;SDS011;8720;48.488;9.202;2023-11-21T05:28:24;1.00;;;0.60;;
17207;SDS011;8720;48.488;9.202;2023-11-21T05:30:51;1.60;;;0.63;;
17207;SDS011;8720;48.488;9.202;2023-11-21T05:33:20;1.20;;;0.70;;
17207;SDS011;8720;48.488;9.202;2023-11-21T05:35:47;1.00;;;0.70;;
17207;SDS011;8720;48.488;9.202;2023-11-21T05:38:15;1.03;;;0.67;;
17207;SDS011;8720;48.488;9.202;2023-11-21T05:40:42;1.53;;;0.70;;
17207;SDS011;8720;48.488;9.202;2023-11-21T05:43:09;1.00;;;0.70;;
17207;SDS011;8720;48.488;9.202;2023-11-21T05:45:38;1.10;;;0.80;;
17207;SDS011;8720;48.488;9.202;2023-11-21T05:48:06;1.40;;;1.10;;
17207;SDS011;8720;48.488;9.202;2023-11-21T05:50:33;2.30;;;0.97;;
17207;SDS011;8720;48.488;9.202;2023-11-21T05:53:00;2.33;;;1.07;;
17207;SDS011;8720;48.488;9.202;2023-11-21T05:55:29;1.60;;;0.87;;
17207;SDS011;8720;48.488;9.202;2023-11-21T05:57:55;1.27;;;1.10;;
17207;SDS011;8720;48.488;9.202;2023-11-21T06:00:22;1.30;;;0.80;;
17207;SDS011;8720;48.488;9.202;2023-11-21T06:02:52;1.40;;;1.00;;
17207;SDS011;8720;48.488;9.202;2023-11-21T06:05:21;1.87;;;1.70;;
17207;SDS011;8720;48.488;9.202;2023-11-21T06:07:50;2.20;;;0.87;;
17207;SDS011;8720;48.488;9.202;2023-11-21T06:10:19;1.60;;;1.00;;
17207;SDS011;8720;48.488;9.202;2023-11-21T06:12:49;1.30;;;1.00;;
17207;SDS011;8720;48.488;9.202;2023-11-21T06:15:16;1.70;;;0.97;;
17207;SDS011;8720;48.488;9.202;2023-11-21T06:17:46;1.40;;;1.10;;
17207;SDS011;8720;48.488;9.202;2023-11-21T06:20:18;1.73;;;1.30;;
17207;SDS011;8720;48.488;9.202;2023-11-21T06:22:48;1.73;;;1.10;;
17207;SDS011;8720;48.488;9.202;2023-11-21T06:25:16;2.20;;;0.90;;
17207;SDS011;8720;48.488;9.202;2023-11-21T06:27:44;1.63;;;1.00;;
17207;SDS011;8720;48.488;9.202;2023-11-21T06:30:13;1.30;;;0.80;;
17207;SDS011;8720;48.488;9.202;2023-11-21T06:32:42;1.50;;;1.10;;
17207;SDS011;8720;48.488;9.202;2023-11-21T06:35:12;3.63;;;1.43;;
17207;SDS011;8720;48.488;9.202;2023-11-21T06:37:41;1.60;;;1.10;;
17207;SDS011;8720;48.488;9.202;2023-11-21T06:40:12;1.90;;;1.30;;
17207;SDS011;8720;48.488;9.202;2023-11-21T06:42:40;1.23;;;0.90;;
17207;SDS011;8720;48.488;9.202;2023-11-21T06:45:09;3.53;;;0.97;;
17207;SDS011;8720;48.488;9.202;2023-11-21T06:47:37;4.80;;;1.30;;
17207;SDS011;8720;48.488;9.202;2023-11-21T06:50:05;1.30;;;0.93;;
17207;SDS011;8720;48.488;9.202;2023-11-21T06:52:33;1.53;;;1.00;;
17207;SDS011;8720;48.488;9.202;2023-11-21T06:55:02;1.80;;;1.27;;
17207;SDS011;8720;48.488;9.202;2023-11-21T06:57:33;3.37;;;1.40;;
17207;SDS011;8720;48.488;9.202;2023-11-21T07:00:01;1.67;;;1.20;;
17207;SDS011;8720;48.488;9.202;2023-11-21T07:02:29;1.70;;;1.60;;
17207;SDS011;8720;48.488;9.202;2023-11-21T07:04:56;2.30;;;1.33;;
17207;SDS011;8720;48.488;9.202;2023-11-21T07:07:23;2.40;;;1.43;;
17207;SDS011;8720;48.488;9.202;2023-11-21T07:09:51;1.50;;;1.00;;
17207;SDS011;8720;48.488;9.202;2023-11-21T07:12:20;1.67;;;1.03;;
17207;SDS011;8720;48.488;9.202;2023-11-21T07:14:48;2.47;;;1.37;;
17207;SDS011;8720;48.488;9.202;2023-11-21T07:17:16;1.30;;;0.90;;
17207;SDS011;8720;48.488;9.202;2023-11-21T07:19:43;1.73;;;1.00;;
17207;SDS011;8720;48.488;9.202;2023-11-21T07:22:11;1.50;;;0.90;;
17207;SDS011;8720;48.488;9.202;2023-11-21T07:24:39;1.30;;;0.70;;
17207;SDS011;8720;48.488;9.202;2023-11-21T07:27:07;1.20;;;0.70;;
17207;SDS011;8720;48.488;9.202;2023-11-21T07:29:35;1.17;;;0.70;;
17207;SDS011;8720;48.488;9.202;2023-11-21T07:32:03;3.43;;;0.80;;
17207;SDS011;8720;48.488;9.202;2023-11-21T07:34:31;1.00;;;0.80;;
17207;SDS011;8720;48.488;9.202;2023-11-21T07:36:58;1.13;;;0.70;;
17207;SDS011;8720;48.488;9.202;2023-11-21T07:39:25;1.00;;;0.70;;
17207;SDS011;8720;48.488;9.202;2023-11-21T07:41:52;1.67;;;0.70;;
17207;SDS011;8720;48.488;9.202;2023-11-21T07:44:20;1.80;;;0.73;;
17207;SDS011;8720;48.488;9.202;2023-11-21T07:46:48;3.30;;;1.87;;
17207;SDS011;8720;48.488;9.202;2023-11-21T07:49:16;1.73;;;0.90;;
17207;SDS011;8720;48.488;9.202;2023-11-21T07:51:45;1.30;;;0.80;;
17207;SDS011;8720;48.488;9.202;2023-11-21T07:54:13;1.23;;;0.77;;
17207;SDS011;8720;48.488;9.202;2023-11-21T07:56:41;1.10;;;0.60;;
17207;SDS011;8720;48.488;9.202;2023-11-21T07:59:08;1.00;;;0.70;;
17207;SDS011;8720;48.488;9.202;2023-11-21T08:01:36;1.13;;;0.80;;
17207;SDS011;8720;48.488;9.202;2023-11-21T08:04:05;1.77;;;0.80;;
17207;SDS011;8720;48.488;9.202;2023-11-21T08:06:33;2.40;;;0.70;;
17207;SDS011;8720;48.488;9.202;2023-11-21T08:09:00;1.20;;;0.73;;
17207;SDS011;8720;48.488;9.202;2023-11-21T08:11:28;1.50;;;0.90;;
17207;SDS011;8720;48.488;9.202;2023-11-21T08:13:57;1.63;;;0.80;;
17207;SDS011;8720;48.488;9.202;2023-11-21T08:16:25;1.20;;;0.90;;
17207;SDS011;8720;48.488;9.202;2023-11-21T08:18:52;1.60;;;0.87;;
17207;SDS011;8720;48.488;9.202;2023-11-21T08:21:24;1.07;;;0.87;;
17207;SDS011;8720;48.488;9.202;2023-11-21T08:23:54;1.30;;;0.80;;
17207;SDS011;8720;48.488;9.202;2023-11-21T08:26:21;1.40;;;0.90;;
17207;SDS011;8720;48.488;9.202;2023-11-21T08:28:49;1.30;;;0.70;;
17207;SDS011;8720;48.488;9.202;2023-11-21T08:31:23;1.77;;;0.80;;
17207;SDS011;8720;48.488;9.202;2023-11-21T08:33:51;1.30;;;1.00;;
17207;SDS011;8720;48.488;9.202;2023-11-21T08:36:20;1.23;;;0.80;;
17207;SDS011;8720;48.488;9.202;2023-11-21T08:38:49;0.90;;;0.60;;
17207;SDS011;8720;48.488;9.202;2023-11-21T08:41:18;1.40;;;0.77;;
17207;SDS011;8720;48.488;9.202;2023-11-21T08:43:47;2.03;;;0.90;;
17207;SDS011;8720;48.488;9.202;2023-11-21T08:46:14;1.03;;;0.77;;
17207;SDS011;8720;48.488;9.202;2023-11-21T08:48:43;1.40;;;0.80;;
17207;SDS011;8720;48.488;9.202;2023-11-21T08:51:10;1.10;;;0.80;;
17207;SDS011;8720;48.488;9.202;2023-11-21T08:53:39;1.90;;;0.97;;
17207;SDS011;8720;48.488;9.202;2023-11-21T08:56:08;1.30;;;0.90;;
17207;SDS011;8720;48.488;9.202;2023-11-21T08:58:39;1.10;;;0.80;;
17207;SDS011;8720;48.488;9.202;2023-11-21T09:01:06;1.73;;;0.80;;
17207;SDS011;8720;48.488;9.202;2023-11-21T09:03:34;1.23;;;0.80;;
17207;SDS011;8720;48.488;9.202;2023-11-21T09:06:01;1.10;;;0.90;;
17207;SDS011;8720;48.488;9.202;2023-11-21T09:08:29;1.80;;;0.83;;
17207;SDS011;8720;48.488;9.202;2023-11-21T09:10:57;1.50;;;1.00;;
17207;SDS011;8720;48.488;9.202;2023-11-21T09:13:26;1.50;;;0.90;;
17207;SDS011;8720;48.488;9.202;2023-11-21T09:15:53;1.20;;;0.80;;
17207;SDS011;8720;48.488;9.202;2023-11-21T09:18:20;2.17;;;0.90;;
17207;SDS011;8720;48.488;9.202;2023-11-21T09:20:48;1.50;;;0.90;;
17207;SDS011;8720;48.488;9.202;2023-11-21T09:23:16;2.57;;;0.90;;
17207;SDS011;8720;48.488;9.202;2023-11-21T09:25:43;1.60;;;1.07;;
17207;SDS011;8720;48.488;9.202;2023-11-21T09:28:13;1.23;;;1.10;;
17207;SDS011;8720;48.488;9.202;2023-11-21T09:30:42;2.90;;;1.03;;
17207;SDS011;8720;48.488;9.202;2023-11-21T09:33:09;3.20;;;0.90;;
17207;SDS011;8720;48.488;9.202;2023-11-21T09:35:37;1.20;;;1.00;;
17207;SDS011;8720;48.488;9.202;2023-11-21T09:38:04;1.60;;;0.90;;
17207;SDS011;8720;48.488;9.202;2023-11-21T09:40:35;2.70;;;0.90;;
17207;SDS011;8720;48.488;9.202;2023-11-21T09:43:05;1.60;;;1.13;;
17207;SDS011;8720;48.488;9.202;2023-11-21T09:45:43;1.40;;;0.90;;
17207;SDS011;8720;48.488;9.202;2023-11-21T09:48:15;1.40;;;0.90;;
17207;SDS011;8720;48.488;9.202;2023-11-21T09:50:47;3.63;;;1.20;;
17207;SDS011;8720;48.488;9.202;2023-11-21T09:53:17;1.30;;;0.90;;
17207;SDS011;8720;48.488;9.202;2023-11-21T09:55:47;2.13;;;0.90;;
17207;SDS011;8720;48.488;9.202;2023-11-21T09:58:17;1.37;;;1.03;;
17207;SDS011;8720;48.488;9.202;2023-11-21T10:00:55;2.80;;;1.10;;
17207;SDS011;8720;48.488;9.202;2023-11-21T10:03:26;1.97;;;0.90;;
17207;SDS011;8720;48.488;9.202;2023-11-21T10:05:53;1.20;;;0.90;;
17207;SDS011;8720;48.488;9.202;2023-11-21T10:08:27;1.30;;;0.90;;
17207;SDS011;8720;48.488;9.202;2023-11-21T10:10:57;1.67;;;0.90;;
17207;SDS011;8720;48.488;9.202;2023-11-21T10:13:25;1.27;;;1.00;;
17207;SDS011;8720;48.488;9.202;2023-11-21T10:15:59;1.20;;;1.00;;
17207;SDS011;8720;48.488;9.202;2023-11-21T10:18:30;7.73;;;1.77;;
17207;SDS011;8720;48.488;9.202;2023-11-21T10:21:00;1.27;;;0.93;;
17207;SDS011;8720;48.488;9.202;2023-11-21T10:23:29;1.70;;;1.30;;
17207;SDS011;8720;48.488;9.202;2023-11-21T10:25:56;1.40;;;1.10;;
17207;SDS011;8720;48.488;9.202;2023-11-21T10:28:26;2.90;;;1.47;;
17207;SDS011;8720;48.488;9.202;2023-11-21T10:30:54;1.73;;;1.30;;
17207;SDS011;8720;48.488;9.202;2023-11-21T10:33:28;1.63;;;1.40;;
17207;SDS011;8720;48.488;9.202;2023-11-21T10:35:55;1.83;;;1.30;;
17207;SDS011;8720;48.488;9.202;2023-11-21T10:38:22;2.13;;;1.00;;
17207;SDS011;8720;48.488;9.202;2023-11-21T10:40:52;1.67;;;0.90;;
17207;SDS011;8720;48.488;9.202;2023-11-21T10:43:22;1.10;;;0.80;;
17207;SDS011;8720;48.488;9.202;2023-11-21T10:45:52;1.40;;;0.90;;
17207;SDS011;8720;48.488;9.202;2023-11-21T10:48:24;1.50;;;0.90;;
17207;SDS011;8720;48.488;9.202;2023-11-21T10:50:53;1.97;;;0.93;;
17207;SDS011;8720;48.488;9.202;2023-11-21T10:53:28;1.20;;;0.90;;
17207;SDS011;8720;48.488;9.202;2023-11-21T10:56:00;2.63;;;1.60;;
17207;SDS011;8720;48.488;9.202;2023-11-21T10:58:33;1.70;;;1.40;;
17207;SDS011;8720;48.488;9.202;2023-11-21T11:01:02;3.53;;;1.10;;
17207;SDS011;8720;48.488;9.202;2023-11-21T11:03:36;1.60;;;0.97;;
17207;SDS011;8720;48.488;9.202;2023-11-21T11:06:06;1.40;;;1.00;;
17207;SDS011;8720;48.488;9.202;2023-11-21T11:08:37;2.23;;;1.70;;
17207;SDS011;8720;48.488;9.202;2023-11-21T11:11:05;1.60;;;1.07;;
17207;SDS011;8720;48.488;9.202;2023-11-21T11:13:34;1.40;;;1.00;;
17207;SDS011;8720;48.488;9.202;2023-11-21T11:16:04;1.57;;;1.20;;
17207;SDS011;8720;48.488;9.202;2023-11-21T11:18:35;1.80;;;1.00;;
17207;SDS011;8720;48.488;9.202;2023-11-21T11:21:09;1.87;;;1.00;;
17207;SDS011;8720;48.488;9.202;2023-11-21T11:23:57;1.20;;;1.00;;
17207;SDS011;8720;48.488;9.202;2023-11-21T11:26:46;1.60;;;1.10;;
17207;SDS011;8720;48.488;9.202;2023-11-21T11:29:23;2.57;;;1.47;;
17207;SDS011;8720;48.488;9.202;2023-11-21T11:32:05;2.33;;;1.30;;
17207;SDS011;8720;48.488;9.202;2023-11-21T11:34:49;1.10;;;1.00;;
17207;SDS011;8720;48.488;9.202;2023-11-21T11:37:29;1.40;;;0.90;;
17207;SDS011;8720;48.488;9.202;2023-11-21T11:39:57;2.60;;;1.07;;
17207;SDS011;8720;48.488;9.202;2023-11-21T11:42:26;3.20;;;1.33;;
17207;SDS011;8720;48.488;9.202;2023-11-21T11:44:54;3.00;;;1.00;;
17207;SDS011;8720;48.488;9.202;2023-11-21T11:47:23;1.33;;;1.00;;
17207;SDS011;8720;48.488;9.202;2023-11-21T11:50:03;1.80;;;0.90;;
17207;SDS011;8720;48.488;9.202;2023-11-21T11:52:38;1.40;;;0.90;;
17207;SDS011;8720;48.488;9.202;2023-11-21T11:55:08;1.97;;;1.10;;
17207;SDS011;8720;48.488;9.202;2023-11-21T11:57:38;2.57;;;1.07;;
17207;SDS011;8720;48.488;9.202;2023-11-21T12:00:12;2.33;;;0.90;;
17207;SDS011;8720;48.488;9.202;2023-11-21T12:02:46;1.53;;;0.93;;
17207;SDS011;8720;48.488;9.202;2023-11-21T12:05:15;3.73;;;1.00;;
17207;SDS011;8720;48.488;9.202;2023-11-21T12:07:50;2.10;;;1.10;;
17207;SDS011;8720;48.488;9.202;2023-11-21T12:10:19;1.80;;;1.17;;
17207;SDS011;8720;48.488;9.202;2023-11-21T12:12:50;1.37;;;1.00;;
17207;SDS011;8720;48.488;9.202;2023-11-21T12:15:19;1.73;;;1.30;;
17207;SDS011;8720;48.488;9.202;2023-11-21T12:17:48;1.50;;;1.20;;
17207;SDS011;8720;48.488;9.202;2023-11-21T12:20:18;1.83;;;1.17;;
17207;SDS011;8720;48.488;9.202;2023-11-21T12:22:47;1.20;;;1.00;;
17207;SDS011;8720;48.488;9.202;2023-11-21T12:25:18;1.47;;;1.20;;
17207;SDS011;8720;48.488;9.202;2023-11-21T12:27:50;2.30;;;1.00;;
17207;SDS011;8720;48.488;9.202;2023-11-21T12:30:20;2.33;;;1.17;;
17207;SDS011;8720;48.488;9.202;2023-11-21T12:32:50;2.30;;;1.20;;
17207;SDS011;8720;48.488;9.202;2023-11-21T12:35:20;1.70;;;1.00;;
17207;SDS011;8720;48.488;9.202;2023-11-21T12:37:51;2.03;;;0.90;;
17207;SDS011;8720;48.488;9.202;2023-11-21T12:40:22;1.83;;;0.97;;
17207;SDS011;8720;48.488;9.202;2023-11-21T12:42:51;1.90;;;0.97;;
17207;SDS011;8720;48.488;9.202;2023-11-21T12:45:21;1.53;;;1.10;;
17207;SDS011;8720;48.488;9.202;2023-11-21T12:47:54;2.03;;;1.57;;
17207;SDS011;8720;48.488;9.202;2023-11-21T12:50:25;2.57;;;1.53;;
17207;SDS011;8720;48.488;9.202;2023-11-21T12:52:59;2.13;;;1.47;;
17207;SDS011;8720;48.488;9.202;2023-11-21T12:55:30;1.57;;;1.27;;
17207;SDS011;8720;48.488;9.202;2023-11-21T12:58:02;1.50;;;1.30;;
17207;SDS011;8720;48.488;9.202;2023-11-21T13:00:34;1.60;;;1.07;;
17207;SDS011;8720;48.488;9.202;2023-11-21T13:03:05;1.47;;;1.33;;
17207;SDS011;8720;48.488;9.202;2023-11-21T13:05:37;1.70;;;1.10;;
17207;SDS011;8720;48.488;9.202;2023-11-21T13:08:09;1.80;;;0.97;;
17207;SDS011;8720;48.488;9.202;2023-11-21T13:10:38;1.50;;;1.10;;
17207;SDS011;8720;48.488;9.202;2023-11-21T13:13:10;1.17;;;1.07;;
17207;SDS011;8720;48.488;9.202;2023-11-21T13:15:47;1.20;;;1.03;;
17207;SDS011;8720;48.488;9.202;2023-11-21T13:18:16;1.33;;;1.23;;
17207;SDS011;8720;48.488;9.202;2023-11-21T13:20:47;3.43;;;1.10;;
17207;SDS011;8720;48.488;9.202;2023-11-21T13:23:16;2.20;;;1.00;;
17207;SDS011;8720;48.488;9.202;2023-11-21T13:25:44;2.03;;;1.30;;
17207;SDS011;8720;48.488;9.202;2023-11-21T13:28:13;1.40;;;1.23;;
17207;SDS011;8720;48.488;9.202;2023-11-21T13:30:41;1.80;;;1.20;;
17207;SDS011;8720;48.488;9.202;2023-11-21T13:33:10;2.73;;;1.20;;
17207;SDS011;8720;48.488;9.202;2023-11-21T13:35:43;1.37;;;1.23;;
17207;SDS011;8720;48.488;9.202;2023-11-21T13:38:14;1.30;;;1.20;;
17207;SDS011;8720;48.488;9.202;2023-11-21T13:40:49;1.90;;;1.70;;
17207;SDS011;8720;48.488;9.202;2023-11-21T13:43:20;1.73;;;1.37;;
17207;SDS011;8720;48.488;9.202;2023-11-21T13:45:51;1.70;;;1.60;;
17207;SDS011;8720;48.488;9.202;2023-11-21T13:48:25;2.80;;;1.63;;
17207;SDS011;8720;48.488;9.202;2023-11-21T13:51:00;2.40;;;1.30;;
17207;SDS011;8720;48.488;9.202;2023-11-21T13:53:39;1.60;;;1.50;;
17207;SDS011;8720;48.488;9.202;2023-11-21T13:56:08;4.00;;;1.70;;
17207;SDS011;8720;48.488;9.202;2023-11-21T13:58:36;2.93;;;1.60;;
17207;SDS011;8720;48.488;9.202;2023-11-21T14:01:10;1.80;;;1.50;;
17207;SDS011;8720;48.488;9.202;2023-11-21T14:03:57;2.63;;;1.60;;
17207;SDS011;8720;48.488;9.202;2023-11-21T14:06:34;2.20;;;2.00;;
17207;SDS011;8720;48.488;9.202;2023-11-21T14:09:14;2.53;;;2.17;;
17207;SDS011;8720;48.488;9.202;2023-11-21T14:11:51;3.40;;;2.60;;
17207;SDS011;8720;48.488;9.202;2023-11-21T14:14:22;9.33;;;7.90;;
17207;SDS011;8720;48.488;9.202;2023-11-21T14:16:51;3.80;;;3.27;;
17207;SDS011;8720;48.488;9.202;2023-11-21T14:19:21;4.13;;;2.17;;
17207;SDS011;8720;48.488;9.202;2023-11-21T14:21:52;2.93;;;2.20;;
17207;SDS011;8720;48.488;9.202;2023-11-21T14:24:21;3.30;;;1.90;;
17207;SDS011;8720;48.488;9.202;2023-11-21T14:26:51;3.00;;;1.93;;
17207;SDS011;8720;48.488;9.202;2023-11-21T14:29:20;2.90;;;2.30;;
17207;SDS011;8720;48.488;9.202;2023-11-21T14:31:49;4.20;;;3.80;;
17207;SDS011;8720;48.488;9.202;2023-11-21T14:34:18;3.27;;;2.67;;
17207;SDS011;8720;48.488;9.202;2023-11-21T14:36:46;2.70;;;2.43;;
17207;SDS011;8720;48.488;9.202;2023-11-21T14:39:14;3.87;;;2.93;;
17207;SDS011;8720;48.488;9.202;2023-11-21T14:41:50;4.13;;;3.73;;
17207;SDS011;8720;48.488;9.202;2023-11-21T14:44:18;4.27;;;3.90;;
17207;SDS011;8720;48.488;9.202;2023-11-21T14:46:46;5.97;;;3.10;;
17207;SDS011;8720;48.488;9.202;2023-11-21T14:49:16;3.40;;;2.50;;
17207;SDS011;8720;48.488;9.202;2023-11-21T14:51:46;4.80;;;2.93;;
17207;SDS011;8720;48.488;9.202;2023-11-21T14:54:26;4.57;;;2.50;;
17207;SDS011;8720;48.488;9.202;2023-11-21T14:57:07;3.37;;;3.07;;
17207;SDS011;8720;48.488;9.202;2023-11-21T14:59:36;3.00;;;2.63;;
17207;SDS011;8720;48.488;9.202;2023-11-21T15:02:10;3.73;;;3.37;;
17207;SDS011;8720;48.488;9.202;2023-11-21T15:04:41;3.60;;;3.20;;
17207;SDS011;8720;48.488;9.202;2023-11-21T15:07:09;3.50;;;3.20;;
17207;SDS011;8720;48.488;9.202;2023-11-21T15:09:37;4.33;;;3.63;;
17207;SDS011;8720;48.488;9.202;2023-11-21T15:12:10;4.10;;;3.33;;
17207;SDS011;8720;48.488;9.202;2023-11-21T15:14:40;3.30;;;2.90;;
17207;SDS011;8720;48.488;9.202;2023-11-21T15:17:11;5.73;;;3.30;;